Time;durP1;ratioP1;P1;durP2;ratioP2;P2;SDS_P1;SDS_P2;PMS_P1;PMS_P2;Temp;Humidity;BMP_temperature;BMP_pressure;BME280_temperature;BME280_humidity;BME280_pressure;Samples;Min_cycle;Max_cycle;Signal;HPM_P1;HPM_P2
2022/08/27 00:01:26;;;;;;;13.13;11.57;;;19.10;99.90;;;;;;5054391;28;20249;-76
2022/08/27 00:03:55;;;;;;;14.20;10.53;;;19.10;99.90;;;;;;5054698;28;20653;-75
2022/08/27 00:06:21;;;;;;;11.37;9.87;;;19.10;99.90;;;;;;5059694;28;20671;-76
2022/08/27 00:08:48;;;;;;;12.20;10.50;;;19.10;99.90;;;;;;5065138;28;20449;-75
2022/08/27 00:11:14;;;;;;;10.10;8.87;;;19.10;99.90;;;;;;5056800;28;21019;-75
2022/08/27 00:13:40;;;;;;;10.63;9.53;;;19.10;99.90;;;;;;5054516;28;20901;-75
2022/08/27 00:16:07;;;;;;;12.20;11.10;;;19.10;99.90;;;;;;5054014;28;20408;-75
2022/08/27 00:18:34;;;;;;;11.17;10.10;;;19.10;99.90;;;;;;5054306;28;20196;-74
2022/08/27 00:21:01;;;;;;;11.33;9.97;;;19.10;99.90;;;;;;5054170;28;20402;-74
2022/08/27 00:23:27;;;;;;;12.43;10.90;;;19.10;99.90;;;;;;5054560;28;20404;-75
2022/08/27 00:25:53;;;;;;;12.00;10.80;;;19.20;99.90;;;;;;5053913;28;20404;-75
2022/08/27 00:28:19;;;;;;;14.00;10.00;;;19.10;99.90;;;;;;5054132;28;20812;-74
2022/08/27 00:30:44;;;;;;;11.97;10.87;;;19.10;99.90;;;;;;5054106;28;20409;-75
2022/08/27 00:33:10;;;;;;;11.93;10.70;;;19.10;99.90;;;;;;5054042;28;20188;-74
2022/08/27 00:35:36;;;;;;;12.23;9.97;;;19.10;99.90;;;;;;5053548;28;20254;-75
2022/08/27 00:38:04;;;;;;;11.87;10.70;;;19.10;99.90;;;;;;5053846;28;20160;-76
2022/08/27 00:40:30;;;;;;;11.83;10.37;;;19.10;99.90;;;;;;5053951;28;20407;-75
2022/08/27 00:42:56;;;;;;;16.67;11.70;;;19.10;99.90;;;;;;5053850;28;20952;-75
2022/08/27 00:45:23;;;;;;;14.37;10.97;;;19.10;99.90;;;;;;5053367;28;20403;-75
2022/08/27 00:47:53;;;;;;;13.70;10.70;;;19.10;99.90;;;;;;5053642;28;20916;-76
2022/08/27 00:50:31;;;;;;;12.40;9.70;;;19.10;99.90;;;;;;5053479;28;20902;-75
2022/08/27 00:53:01;;;;;;;12.97;11.40;;;19.10;99.90;;;;;;5053461;28;20998;-75
2022/08/27 00:55:32;;;;;;;11.10;9.80;;;19.10;99.90;;;;;;5053441;28;20831;-76
2022/08/27 00:58:14;;;;;;;14.40;9.53;;;19.10;99.90;;;;;;5053839;28;20550;-75
2022/08/27 01:00:40;;;;;;;10.77;9.73;;;19.10;99.90;;;;;;5053784;28;20390;-76
2022/08/27 01:03:06;;;;;;;12.50;8.83;;;19.10;99.90;;;;;;5053651;28;20783;-76
2022/08/27 01:05:33;;;;;;;11.57;10.47;;;19.20;99.90;;;;;;5053182;28;20169;-75
2022/08/27 01:08:08;;;;;;;11.77;10.57;;;19.20;99.90;;;;;;5053600;28;20410;-75
2022/08/27 01:10:34;;;;;;;12.40;11.20;;;19.20;99.90;;;;;;5053240;28;20430;-75
2022/08/27 01:13:00;;;;;;;10.73;9.63;;;19.20;99.90;;;;;;5050820;28;20431;-75
2022/08/27 01:15:28;;;;;;;12.63;11.40;;;19.20;99.90;;;;;;5053164;28;20487;-76
2022/08/27 01:17:55;;;;;;;12.90;10.77;;;19.20;99.90;;;;;;5035846;28;20421;-76
2022/08/27 01:20:25;;;;;;;12.30;10.43;;;19.30;99.90;;;;;;5053273;28;20410;-77
2022/08/27 01:23:28;;;;;;;11.73;9.83;;;19.30;99.90;;;;;;5053004;28;20430;-76
2022/08/27 01:25:55;;;;;;;11.33;9.37;;;19.30;99.90;;;;;;5035034;28;20498;-75
2022/08/27 01:28:21;;;;;;;13.97;11.07;;;19.30;99.90;;;;;;5053266;28;20404;-75
2022/08/27 01:30:47;;;;;;;11.90;10.70;;;19.30;99.90;;;;;;5035857;28;20923;-75
2022/08/27 01:33:18;;;;;;;11.60;10.40;;;19.30;99.90;;;;;;5053877;28;20439;-76
2022/08/27 01:35:48;;;;;;;12.93;10.97;;;19.30;99.90;;;;;;5053827;28;20474;-75
2022/08/27 01:38:14;;;;;;;14.17;11.43;;;19.30;99.90;;;;;;5054784;28;20398;-76
2022/08/27 01:40:40;;;;;;;12.40;11.17;;;19.30;99.90;;;;;;5054740;28;20415;-76
2022/08/27 01:43:06;;;;;;;12.23;10.53;;;19.30;99.90;;;;;;5053783;28;20482;-76
2022/08/27 01:45:35;;;;;;;12.87;11.47;;;19.30;99.90;;;;;;5053847;28;20408;-75
2022/08/27 01:48:01;;;;;;;12.10;10.90;;;19.40;99.90;;;;;;5055267;28;20408;-76
2022/08/27 01:50:31;;;;;;;14.07;11.50;;;19.40;99.90;;;;;;5055960;28;20517;-76
2022/08/27 01:53:02;;;;;;;13.80;10.67;;;19.40;99.90;;;;;;5054955;28;20419;-76
2022/08/27 01:55:28;;;;;;;13.40;11.43;;;19.40;99.90;;;;;;5064380;28;20458;-76
2022/08/27 01:57:54;;;;;;;12.67;11.30;;;19.40;99.90;;;;;;5055069;28;20779;-75
2022/08/27 02:00:29;;;;;;;14.03;12.50;;;19.40;99.90;;;;;;5052573;28;20180;-75
2022/08/27 02:02:56;;;;;;;16.00;12.27;;;19.40;99.90;;;;;;5052709;28;20460;-75
2022/08/27 02:05:21;;;;;;;17.33;12.30;;;19.50;99.90;;;;;;5052125;28;20403;-75
2022/08/27 02:07:47;;;;;;;13.97;12.40;;;19.50;99.90;;;;;;5053314;28;20408;-76
2022/08/27 02:10:18;;;;;;;18.37;11.53;;;19.50;99.90;;;;;;5053877;28;20179;-76
2022/08/27 02:12:44;;;;;;;17.27;12.70;;;19.50;99.90;;;;;;5054395;28;20191;-76
2022/08/27 02:15:10;;;;;;;17.20;12.17;;;19.50;99.90;;;;;;5054869;28;20447;-76
2022/08/27 02:17:36;;;;;;;17.23;11.93;;;19.50;99.90;;;;;;5054569;28;20406;-76
2022/08/27 02:20:04;;;;;;;14.23;11.23;;;19.50;99.90;;;;;;5052716;28;20776;-76
2022/08/27 02:22:29;;;;;;;18.03;13.57;;;19.60;99.90;;;;;;5051087;28;20567;-76
2022/08/27 02:24:55;;;;;;;17.50;13.17;;;19.60;99.90;;;;;;5051885;28;20504;-76
2022/08/27 02:27:21;;;;;;;15.13;11.83;;;19.60;99.90;;;;;;5051722;28;20658;-76
2022/08/27 02:29:46;;;;;;;19.90;13.10;;;19.60;99.90;;;;;;5051930;28;20175;-76
2022/08/27 02:32:13;;;;;;;14.40;12.03;;;19.60;99.90;;;;;;5051799;28;20222;-76
2022/08/27 02:34:39;;;;;;;17.70;13.90;;;19.70;99.90;;;;;;5051435;28;20190;-76
2022/08/27 02:37:06;;;;;;;17.33;12.23;;;19.60;99.90;;;;;;5051646;28;20409;-76
2022/08/27 02:39:32;;;;;;;17.37;12.73;;;19.70;99.90;;;;;;5051854;28;20178;-76
2022/08/27 02:41:57;;;;;;;14.87;12.13;;;19.70;99.90;;;;;;5051709;28;20444;-76
2022/08/27 02:44:23;;;;;;;19.97;12.50;;;19.70;99.90;;;;;;5053889;28;20412;-76
2022/08/27 02:46:48;;;;;;;19.47;14.17;;;19.70;99.90;;;;;;5055747;28;20173;-76
2022/08/27 02:49:14;;;;;;;15.67;13.57;;;19.70;99.90;;;;;;5051786;28;20204;-76
2022/08/27 02:51:40;;;;;;;18.57;13.53;;;19.70;99.90;;;;;;5051548;28;20196;-77
2022/08/27 02:54:06;;;;;;;17.90;14.20;;;19.70;99.90;;;;;;5051487;28;20282;-76
2022/08/27 02:56:31;;;;;;;18.97;14.07;;;19.70;99.90;;;;;;5051067;28;20252;-76
2022/08/27 02:58:58;;;;;;;20.50;15.50;;;19.70;99.90;;;;;;5051720;28;20409;-76
2022/08/27 03:01:24;;;;;;;21.60;13.80;;;19.70;99.90;;;;;;5051419;28;20646;-76
2022/08/27 03:03:50;;;;;;;27.77;12.63;;;19.70;99.90;;;;;;5051526;28;20408;-76
2022/08/27 03:06:15;;;;;;;19.50;14.50;;;19.70;99.90;;;;;;5051097;28;20435;-76
2022/08/27 03:08:41;;;;;;;18.10;13.07;;;19.70;99.90;;;;;;5051646;28;20654;-76
2022/08/27 03:11:07;;;;;;;18.97;12.97;;;19.70;99.90;;;;;;5051307;28;20657;-77
2022/08/27 03:13:37;;;;;;;23.43;14.73;;;19.70;99.90;;;;;;5051582;28;20167;-74
2022/08/27 03:16:03;;;;;;;23.50;14.23;;;19.70;99.90;;;;;;5051204;28;20169;-76
2022/08/27 03:18:31;;;;;;;20.50;14.17;;;19.70;99.90;;;;;;5051463;28;20412;-77
2022/08/27 03:20:58;;;;;;;21.43;14.97;;;19.80;99.90;;;;;;5051315;28;20423;-76
2022/08/27 03:23:25;;;;;;;17.40;13.30;;;19.80;99.90;;;;;;5051228;28;20452;-76
2022/08/27 03:25:53;;;;;;;21.40;15.07;;;19.80;99.90;;;;;;5051252;28;20420;-75
2022/08/27 03:28:21;;;;;;;18.33;13.50;;;19.80;99.90;;;;;;5051577;28;20416;-76
2022/08/27 03:31:00;;;;;;;22.80;14.53;;;19.70;99.90;;;;;;5051470;28;20417;-76
2022/08/27 03:33:30;;;;;;;20.80;14.50;;;19.70;99.90;;;;;;5052854;28;20783;-76
2022/08/27 03:35:56;;;;;;;22.70;15.47;;;19.70;99.90;;;;;;5055355;28;20420;-76
2022/08/27 03:38:21;;;;;;;20.47;15.17;;;19.70;99.90;;;;;;5055151;28;20457;-76
2022/08/27 03:40:48;;;;;;;26.07;16.40;;;19.70;99.90;;;;;;5060270;28;20198;-76
2022/08/27 03:43:15;;;;;;;21.80;15.70;;;19.70;99.90;;;;;;5063692;28;20199;-76
2022/08/27 03:45:44;;;;;;;23.87;17.40;;;19.60;99.90;;;;;;5054694;28;20407;-75
2022/08/27 03:48:11;;;;;;;22.20;16.10;;;19.60;99.90;;;;;;5054503;28;20732;-76
2022/08/27 03:50:42;;;;;;;32.53;17.63;;;19.60;99.90;;;;;;5054744;28;20416;-76
2022/08/27 03:53:08;;;;;;;24.90;16.63;;;19.60;99.90;;;;;;5054814;28;20431;-76
2022/08/27 03:55:34;;;;;;;24.63;14.30;;;19.60;99.90;;;;;;5054318;28;20538;-76
2022/08/27 03:57:59;;;;;;;23.93;16.10;;;19.60;99.90;;;;;;5054899;28;20506;-76
2022/08/27 04:00:26;;;;;;;22.40;15.23;;;19.60;99.90;;;;;;5036873;28;20168;-76
2022/08/27 04:02:53;;;;;;;29.63;17.90;;;19.60;99.90;;;;;;5054431;28;20178;-76
2022/08/27 04:05:20;;;;;;;25.97;18.33;;;19.60;99.90;;;;;;5054351;28;20447;-76
2022/08/27 04:07:46;;;;;;;24.90;14.33;;;19.50;99.90;;;;;;5054347;28;20427;-76
2022/08/27 04:10:14;;;;;;;24.07;15.00;;;19.60;99.90;;;;;;5054461;28;20412;-76
2022/08/27 04:12:40;;;;;;;21.77;15.40;;;19.50;99.90;;;;;;5054191;28;20925;-75
2022/08/27 04:15:08;;;;;;;24.97;16.57;;;19.50;99.90;;;;;;5054033;28;20447;-75
2022/08/27 04:17:34;;;;;;;21.53;16.10;;;19.50;99.90;;;;;;5054057;28;20447;-75
2022/08/27 04:20:00;;;;;;;24.37;17.70;;;19.50;99.90;;;;;;5054420;28;20412;-79
2022/08/27 04:22:26;;;;;;;25.30;15.30;;;19.50;99.90;;;;;;5054028;28;20442;-75
2022/08/27 04:24:52;;;;;;;23.87;15.77;;;19.50;99.90;;;;;;5036111;28;20535;-75
2022/08/27 04:27:19;;;;;;;23.03;15.07;;;19.50;99.90;;;;;;5054138;28;20917;-75
2022/08/27 04:29:45;;;;;;;25.80;15.50;;;19.50;99.90;;;;;;5054318;28;20413;-76
2022/08/27 04:32:11;;;;;;;20.30;13.60;;;19.50;99.90;;;;;;5053837;28;20571;-75
2022/08/27 04:34:37;;;;;;;22.87;15.67;;;19.50;99.90;;;;;;5053684;28;20450;-76
2022/08/27 04:37:03;;;;;;;22.00;14.90;;;19.50;99.90;;;;;;5035903;28;20424;-75
2022/08/27 04:39:29;;;;;;;23.60;13.63;;;19.50;99.90;;;;;;5053825;28;20177;-76
2022/08/27 04:41:58;;;;;;;21.90;14.00;;;19.50;99.90;;;;;;5053817;28;20195;-74
2022/08/27 04:44:25;;;;;;;22.63;14.73;;;19.40;99.90;;;;;;5053170;28;20418;-74
2022/08/27 04:46:57;;;;;;;21.90;15.30;;;19.50;99.90;;;;;;5053870;28;20470;-78
2022/08/27 04:49:24;;;;;;;23.80;14.50;;;19.50;99.90;;;;;;5054144;28;20477;-74
2022/08/27 04:51:49;;;;;;;23.27;14.03;;;19.50;99.90;;;;;;5054395;28;20489;-75
2022/08/27 04:54:15;;;;;;;19.47;14.00;;;19.50;99.90;;;;;;5053653;28;20943;-75
2022/08/27 04:56:41;;;;;;;25.50;15.70;;;19.50;99.90;;;;;;5051053;28;20179;-74
2022/08/27 04:59:07;;;;;;;22.67;15.03;;;19.50;99.90;;;;;;5043017;28;20174;-75
2022/08/27 05:01:34;;;;;;;20.40;14.53;;;19.50;99.90;;;;;;5053360;28;20191;-75
2022/08/27 05:04:00;;;;;;;19.57;14.13;;;19.40;99.90;;;;;;5058440;28;20416;-75
2022/08/27 05:06:26;;;;;;;22.13;14.33;;;19.40;99.90;;;;;;5055159;28;20448;-75
2022/08/27 05:08:53;;;;;;;26.93;16.67;;;19.40;99.90;;;;;;5054425;28;20262;-75
2022/08/27 05:11:19;;;;;;;21.73;14.00;;;19.50;99.90;;;;;;5053503;28;20771;-76
2022/08/27 05:13:46;;;;;;;29.80;15.97;;;19.40;99.90;;;;;;5046572;28;20778;-74
2022/08/27 05:16:14;;;;;;;22.33;14.23;;;19.50;99.90;;;;;;5053000;28;20415;-75
2022/08/27 05:18:41;;;;;;;21.40;13.37;;;19.40;99.90;;;;;;5053327;28;20431;-76
2022/08/27 05:21:07;;;;;;;23.37;15.03;;;19.40;99.90;;;;;;5052752;28;20440;-76
2022/08/27 05:23:33;;;;;;;18.80;12.47;;;19.50;99.90;;;;;;5053739;28;20414;-74
2022/08/27 05:25:59;;;;;;;20.60;13.17;;;19.50;99.90;;;;;;5057073;28;20438;-73
2022/08/27 05:28:27;;;;;;;21.30;12.93;;;19.40;99.90;;;;;;5060903;28;20844;-74
2022/08/27 05:31:01;;;;;;;24.77;14.80;;;19.60;99.90;;;;;;5047696;28;20696;-74
2022/08/27 05:33:27;;;;;;;23.13;14.97;;;19.60;99.90;;;;;;5032907;28;20420;-74
2022/08/27 05:35:54;;;;;;;22.63;14.70;;;19.60;99.90;;;;;;5014473;28;21035;-74
2022/08/27 05:38:21;;;;;;;21.10;13.20;;;19.60;99.90;;;;;;5036552;28;20214;-73
2022/08/27 05:40:47;;;;;;;24.80;13.50;;;19.60;99.90;;;;;;5054467;28;20407;-74
2022/08/27 05:43:15;;;;;;;21.03;13.47;;;19.50;99.90;;;;;;5072906;28;20421;-74
2022/08/27 05:45:43;;;;;;;16.80;12.27;;;19.60;99.90;;;;;;5077345;28;20476;-74
2022/08/27 05:48:10;;;;;;;20.07;13.50;;;19.60;99.90;;;;;;5072445;28;20770;-74
2022/08/27 05:50:37;;;;;;;18.80;13.90;;;19.70;99.90;;;;;;5072382;28;20411;-74
2022/08/27 05:53:02;;;;;;;22.93;15.43;;;19.60;99.90;;;;;;5072408;28;20426;-74
2022/08/27 05:55:28;;;;;;;17.23;12.33;;;19.70;99.90;;;;;;5072009;28;20895;-75
2022/08/27 05:57:53;;;;;;;16.40;12.00;;;19.70;99.90;;;;;;5038286;28;20171;-74
2022/08/27 06:03:03;;;;;;;18.27;14.63;;;19.70;99.90;;;;;;5052337;28;20684;-74
2022/08/27 06:05:31;;;;;;;18.43;11.43;;;19.70;99.90;;;;;;5051649;28;20418;-74
2022/08/27 06:07:56;;;;;;;18.30;12.53;;;19.70;99.90;;;;;;5052138;28;20244;-75
2022/08/27 06:10:22;;;;;;;16.80;11.40;;;19.70;99.90;;;;;;5052067;28;20418;-75
2022/08/27 06:12:47;;;;;;;22.83;11.80;;;19.60;99.90;;;;;;5051919;28;20204;-76
2022/08/27 06:15:13;;;;;;;15.70;11.80;;;19.60;99.90;;;;;;5069278;28;20212;-73
2022/08/27 06:17:38;;;;;;;16.83;12.30;;;19.80;99.90;;;;;;5072009;28;20233;-74
2022/08/27 06:20:04;;;;;;;12.43;10.20;;;19.70;99.90;;;;;;5072178;28;20165;-74
2022/08/27 06:22:30;;;;;;;19.33;10.83;;;19.80;99.90;;;;;;5071522;28;20257;-74
2022/08/27 06:24:56;;;;;;;14.30;11.07;;;19.80;99.90;;;;;;5044848;28;20471;-73
2022/08/27 06:27:21;;;;;;;16.43;12.10;;;19.90;99.90;;;;;;5052082;28;20179;-76
2022/08/27 06:29:47;;;;;;;14.90;11.17;;;19.90;99.90;;;;;;5051812;28;20416;-76
2022/08/27 06:32:13;;;;;;;18.20;9.50;;;20.00;99.90;;;;;;5035013;28;20190;-75
2022/08/27 06:34:39;;;;;;;11.73;10.20;;;20.00;99.90;;;;;;5031551;28;20183;-76
2022/08/27 06:37:06;;;;;;;9.90;8.40;;;19.90;99.90;;;;;;5031357;28;20397;-76
2022/08/27 06:39:32;;;;;;;11.83;8.67;;;20.00;99.90;;;;;;5050269;28;20257;-75
2022/08/27 06:41:58;;;;;;;9.00;7.50;;;20.00;99.90;;;;;;5051509;28;20436;-76
2022/08/27 06:44:24;;;;;;;8.23;7.33;;;19.90;99.90;;;;;;5051662;28;20721;-75
2022/08/27 06:46:50;;;;;;;7.90;7.10;;;20.00;99.90;;;;;;5051377;28;20409;-75
2022/08/27 06:49:16;;;;;;;8.00;7.10;;;20.00;99.90;;;;;;5051748;28;20174;-75
2022/08/27 06:51:45;;;;;;;8.83;6.27;;;20.00;99.90;;;;;;5051718;28;21009;-75
2022/08/27 06:54:12;;;;;;;8.20;7.40;;;20.00;99.90;;;;;;5051707;28;20193;-75
2022/08/27 06:56:38;;;;;;;9.13;7.70;;;20.10;99.90;;;;;;5051246;28;20844;-76
2022/08/27 06:59:06;;;;;;;9.53;8.47;;;20.00;99.90;;;;;;5051932;28;20748;-76
2022/08/27 07:01:35;;;;;;;9.47;8.47;;;20.00;99.90;;;;;;5052179;28;20963;-76
2022/08/27 07:04:03;;;;;;;10.27;7.60;;;20.10;99.90;;;;;;5052219;28;20470;-76
2022/08/27 07:06:30;;;;;;;12.03;10.40;;;20.10;99.90;;;;;;5052060;28;20785;-76
2022/08/27 07:08:56;;;;;;;10.10;8.37;;;20.20;99.90;;;;;;5055640;28;20406;-76
2022/08/27 07:11:23;;;;;;;13.33;10.23;;;20.20;99.90;;;;;;5057068;28;20422;-76
2022/08/27 07:13:49;;;;;;;8.63;7.70;;;20.30;99.90;;;;;;5059795;28;20424;-76
2022/08/27 07:16:21;;;;;;;10.50;9.37;;;20.40;99.90;;;;;;5059060;28;20438;-77
2022/08/27 07:18:49;;;;;;;10.37;7.70;;;20.40;99.90;;;;;;5071832;28;20431;-75
2022/08/27 07:21:15;;;;;;;8.67;7.77;;;20.50;99.90;;;;;;5075261;28;20420;-77
2022/08/27 07:23:40;;;;;;;9.30;7.30;;;20.50;99.90;;;;;;5075163;28;20761;-75
2022/08/27 07:26:08;;;;;;;10.07;6.60;;;20.50;99.90;;;;;;5078086;28;20168;-76
2022/08/27 07:28:34;;;;;;;9.67;7.03;;;20.60;99.90;;;;;;5077415;28;20648;-75
2022/08/27 07:30:59;;;;;;;12.43;8.93;;;20.60;99.90;;;;;;5077746;28;20489;-75
2022/08/27 07:33:25;;;;;;;7.77;6.83;;;20.60;99.90;;;;;;5074865;28;20525;-75
2022/08/27 07:35:50;;;;;;;8.17;6.80;;;20.80;99.90;;;;;;5074195;28;20266;-75
2022/08/27 07:38:16;;;;;;;10.13;7.80;;;20.80;99.90;;;;;;5074631;28;20210;-75
2022/08/27 07:40:42;;;;;;;7.03;6.43;;;20.70;99.90;;;;;;5064115;28;20166;-76
2022/08/27 07:45:55;;;;;;;9.03;8.07;;;20.80;99.90;;;;;;5054440;28;20263;-76
2022/08/27 07:48:24;;;;;;;8.53;7.63;;;20.80;99.90;;;;;;5036739;28;20468;-75
2022/08/27 07:50:51;;;;;;;11.33;8.87;;;20.80;99.90;;;;;;5054412;28;20412;-75
2022/08/27 07:53:17;;;;;;;8.83;7.03;;;20.80;99.90;;;;;;5054466;28;20926;-75
2022/08/27 07:55:43;;;;;;;7.80;6.43;;;20.80;99.90;;;;;;5054257;28;20450;-76
2022/08/27 07:58:10;;;;;;;13.10;6.73;;;20.80;99.90;;;;;;5054561;28;20439;-76
2022/08/27 08:00:36;;;;;;;7.60;6.90;;;20.90;99.90;;;;;;5054428;28;20419;-77
2022/08/27 08:03:01;;;;;;;7.60;6.70;;;20.80;99.90;;;;;;5054390;28;20420;-75
2022/08/27 08:05:28;;;;;;;7.10;6.40;;;20.90;99.90;;;;;;5053958;28;20427;-75
2022/08/27 08:07:54;;;;;;;10.80;6.37;;;20.90;99.90;;;;;;5054304;28;20175;-77
2022/08/27 08:10:22;;;;;;;8.40;6.30;;;20.90;99.90;;;;;;5054517;28;20415;-76
2022/08/27 08:12:48;;;;;;;7.60;6.70;;;21.10;99.90;;;;;;5054050;28;20707;-77
2022/08/27 08:15:14;;;;;;;7.83;6.17;;;21.10;99.90;;;;;;5053702;28;20490;-76
2022/08/27 08:17:40;;;;;;;6.77;6.07;;;21.00;99.90;;;;;;5054507;28;20419;-76
2022/08/27 08:20:07;;;;;;;6.63;5.93;;;21.10;99.90;;;;;;5073542;28;20431;-75
2022/08/27 08:22:33;;;;;;;6.43;5.83;;;21.10;99.90;;;;;;5075286;28;20202;-76
2022/08/27 08:24:59;;;;;;;9.50;6.13;;;21.20;99.90;;;;;;5074458;28;20421;-79
2022/08/27 08:27:24;;;;;;;7.70;5.17;;;21.20;99.90;;;;;;5064748;28;20469;-76
2022/08/27 08:29:50;;;;;;;7.00;6.23;;;21.10;99.90;;;;;;5053743;28;20579;-76
2022/08/27 08:32:16;;;;;;;8.53;6.50;;;21.20;99.90;;;;;;5054183;28;20200;-76
2022/08/27 08:34:43;;;;;;;8.73;6.50;;;21.30;99.90;;;;;;5054030;28;20248;-76
2022/08/27 08:37:09;;;;;;;7.17;5.60;;;21.30;99.90;;;;;;5073492;28;20416;-76
2022/08/27 08:39:36;;;;;;;6.40;5.80;;;21.40;99.90;;;;;;5072921;28;20414;-76
2022/08/27 08:42:05;;;;;;;6.53;5.93;;;21.40;99.90;;;;;;5053729;28;20435;-76
2022/08/27 08:44:35;;;;;;;6.23;5.60;;;21.40;99.90;;;;;;5053663;28;20515;-76
2022/08/27 08:47:22;;;;;;;10.50;7.67;;;21.50;99.90;;;;;;5053308;28;20413;-76
2022/08/27 08:50:12;;;;;;;6.50;5.57;;;21.50;99.90;;;;;;5054149;28;20835;-76
2022/08/27 08:53:03;;;;;;;9.30;7.67;;;21.60;99.90;;;;;;5060411;28;20433;-75
2022/08/27 08:55:41;;;;;;;8.07;7.30;;;21.50;99.90;;;;;;5075050;28;20548;-76
2022/08/27 08:58:31;;;;;;;7.70;6.60;;;21.40;99.90;;;;;;5060736;28;20867;-76
2022/08/27 09:01:00;;;;;;;9.23;6.30;;;21.40;99.90;;;;;;5056793;28;20804;-76
2022/08/27 09:03:28;;;;;;;8.30;7.50;;;21.30;99.90;;;;;;5056601;28;20409;-76
2022/08/27 09:06:06;;;;;;;7.90;7.10;;;21.20;99.90;;;;;;5058084;28;20751;-76
2022/08/27 09:08:36;;;;;;;7.17;6.50;;;21.10;99.90;;;;;;5053110;28;20418;-76
2022/08/27 09:11:11;;;;;;;7.60;6.90;;;21.20;99.90;;;;;;5052773;28;20445;-76
2022/08/27 09:13:42;;;;;;;8.50;6.50;;;21.30;99.90;;;;;;5053102;28;20412;-76
2022/08/27 09:16:08;;;;;;;5.63;5.13;;;21.30;99.90;;;;;;5052802;28;20428;-75
2022/08/27 09:18:36;;;;;;;6.63;6.03;;;21.20;99.90;;;;;;5055871;28;20937;-76
2022/08/27 09:21:42;;;;;;;7.70;6.90;;;21.20;99.90;;;;;;5052571;28;20403;-76
2022/08/27 09:24:26;;;;;;;6.40;5.80;;;21.10;99.90;;;;;;5052919;28;20418;-75
2022/08/27 09:26:51;;;;;;;5.40;5.00;;;21.20;99.90;;;;;;5051444;28;20579;-77
2022/08/27 09:29:18;;;;;;;6.30;5.50;;;21.00;99.90;;;;;;5052536;28;20506;-77
2022/08/27 09:31:58;;;;;;;7.07;6.03;;;21.10;99.90;;;;;;5052339;28;20936;-76
2022/08/27 09:34:33;;;;;;;8.87;6.60;;;21.20;99.90;;;;;;5052234;28;20445;-77
2022/08/27 09:37:21;;;;;;;6.30;5.60;;;21.40;99.90;;;;;;5052434;28;20436;-76
2022/08/27 09:40:00;;;;;;;8.70;5.50;;;21.60;99.90;;;;;;5032927;28;20891;-76
2022/08/27 09:42:34;;;;;;;6.53;5.93;;;21.90;99.90;;;;;;5032556;28;20423;-76
2022/08/27 09:45:00;;;;;;;7.90;4.90;;;22.10;99.90;;;;;;5050899;28;20424;-76
2022/08/27 09:47:26;;;;;;;8.70;6.00;;;22.40;99.90;;;;;;5072725;28;20905;-76
2022/08/27 09:50:06;;;;;;;6.47;5.97;;;22.50;99.90;;;;;;5072448;28;20248;-76
2022/08/27 09:52:55;;;;;;;5.10;4.63;;;22.60;99.90;;;;;;5072417;28;20193;-76
2022/08/27 09:55:33;;;;;;;6.33;5.27;;;22.70;99.90;;;;;;5072061;28;20818;-77
2022/08/27 09:58:00;;;;;;;5.17;4.77;;;22.60;99.90;;;;;;5058648;28;20425;-75
2022/08/27 10:00:38;;;;;;;5.97;5.47;;;22.40;99.90;;;;;;5052209;28;20796;-75
2022/08/27 10:03:06;;;;;;;5.80;4.80;;;22.10;99.90;;;;;;5051935;28;20425;-76
2022/08/27 10:05:57;;;;;;;5.03;4.53;;;22.30;99.90;;;;;;5051128;28;20417;-76
2022/08/27 10:08:37;;;;;;;6.60;4.83;;;22.50;99.90;;;;;;5051478;28;20797;-77
2022/08/27 10:11:10;;;;;;;5.20;4.70;;;22.50;99.90;;;;;;5052081;28;20405;-76
2022/08/27 10:14:11;;;;;;;6.03;4.57;;;22.30;99.90;;;;;;5052061;28;20401;-76
2022/08/27 10:16:58;;;;;;;5.37;4.87;;;22.50;99.90;;;;;;5020613;28;20424;-77
2022/08/27 10:19:43;;;;;;;5.33;4.80;;;22.60;99.90;;;;;;5052040;28;20472;-77
2022/08/27 10:22:37;;;;;;;5.97;5.07;;;22.60;99.90;;;;;;5052313;28;20444;-76
2022/08/27 10:25:23;;;;;;;4.30;3.90;;;22.50;99.90;;;;;;5015963;28;20466;-76
2022/08/27 10:28:06;;;;;;;4.73;4.33;;;22.50;99.90;;;;;;5053419;28;20413;-76
2022/08/27 10:30:54;;;;;;;5.07;4.57;;;22.50;99.90;;;;;;5052528;28;20427;-76
2022/08/27 10:33:38;;;;;;;5.57;4.67;;;22.50;99.90;;;;;;5051819;28;20433;-76
2022/08/27 10:36:16;;;;;;;4.17;3.87;;;22.50;99.90;;;;;;5051379;28;20453;-77
2022/08/27 10:38:49;;;;;;;5.30;4.80;;;22.50;99.90;;;;;;5052978;28;20910;-77
2022/08/27 10:41:32;;;;;;;5.77;4.73;;;22.40;99.90;;;;;;5034856;28;20428;-77
2022/08/27 10:44:31;;;;;;;5.10;4.60;;;22.40;99.90;;;;;;5061916;28;20488;-77
2022/08/27 10:47:08;;;;;;;6.00;5.40;;;22.40;99.90;;;;;;5059982;28;20401;-75
2022/08/27 10:49:48;;;;;;;5.20;4.80;;;22.50;99.90;;;;;;5065009;28;20508;-75
2022/08/27 10:52:24;;;;;;;3.90;3.60;;;22.30;99.90;;;;;;5020416;28;20439;-76
2022/08/27 10:55:02;;;;;;;3.83;3.57;;;22.40;99.90;;;;;;5045223;28;20471;-76
2022/08/27 10:57:36;;;;;;;4.77;4.37;;;22.50;99.90;;;;;;5058510;28;20510;-76
2022/08/27 11:00:11;;;;;;;5.37;4.27;;;22.50;99.90;;;;;;5058520;28;20426;-76
2022/08/27 11:02:46;;;;;;;5.13;4.70;;;22.40;99.90;;;;;;5058332;28;20799;-77
2022/08/27 11:05:18;;;;;;;4.70;4.30;;;22.40;99.90;;;;;;5058077;28;20902;-76
2022/08/27 11:07:55;;;;;;;6.93;4.57;;;22.40;99.90;;;;;;5059116;28;20909;-75
2022/08/27 11:10:29;;;;;;;4.83;4.40;;;22.50;99.90;;;;;;5058863;28;20450;-75
2022/08/27 11:13:09;;;;;;;4.50;4.10;;;22.40;99.90;;;;;;5058559;28;20477;-76
2022/08/27 11:15:40;;;;;;;6.60;6.00;;;22.40;99.90;;;;;;5058437;28;21022;-76
2022/08/27 11:18:23;;;;;;;4.53;4.13;;;22.40;99.90;;;;;;5058598;28;20777;-76
2022/08/27 11:20:56;;;;;;;5.00;4.63;;;22.60;99.90;;;;;;5059113;28;20439;-76
2022/08/27 11:23:57;;;;;;;5.63;4.83;;;22.50;99.90;;;;;;5071461;22;20985;-69
2022/08/27 11:26:23;;;;;;;4.30;4.00;;;22.60;99.90;;;;;;5026612;28;20412;-67
2022/08/27 11:28:53;;;;;;;6.33;4.20;;;22.70;99.90;;;;;;5057650;28;20915;-66
2022/08/27 11:31:47;;;;;;;4.53;4.07;;;22.60;99.90;;;;;;5056852;28;20408;-67
2022/08/27 11:34:17;;;;;;;4.03;3.67;;;22.60;99.90;;;;;;5011786;28;20519;-67
2022/08/27 11:36:47;;;;;;;5.13;4.20;;;22.50;99.90;;;;;;5037539;28;20411;-68
2022/08/27 11:39:37;;;;;;;4.43;4.03;;;22.60;99.90;;;;;;5037746;28;20481;-68
2022/08/27 11:42:26;;;;;;;4.00;3.70;;;22.80;99.90;;;;;;5037916;28;21005;-69
2022/08/27 11:44:57;;;;;;;4.60;4.27;;;22.80;99.90;;;;;;5037546;28;20453;-68
2022/08/27 11:47:27;;;;;;;4.37;3.93;;;23.20;99.90;;;;;;5037709;28;20500;-68
2022/08/27 11:49:59;;;;;;;5.10;4.60;;;23.10;99.90;;;;;;5037608;28;20467;-68
2022/08/27 11:52:33;;;;;;;4.60;3.93;;;23.00;99.90;;;;;;5037405;28;20400;-68
2022/08/27 11:55:24;;;;;;;4.10;3.80;;;23.20;99.90;;;;;;5035170;28;20455;-68
2022/08/27 11:58:09;;;;;;;5.03;4.63;;;23.20;99.90;;;;;;5047224;28;20781;-68
2022/08/27 12:00:38;;;;;;;4.17;3.87;;;23.60;99.90;;;;;;5054598;28;20401;-68
2022/08/27 12:03:28;;;;;;;4.07;3.77;;;23.50;99.90;;;;;;5054409;28;20952;-68
2022/08/27 12:05:53;;;;;;;4.77;4.27;;;23.40;99.90;;;;;;5034056;28;20408;-68
2022/08/27 12:08:21;;;;;;;4.60;4.23;;;23.60;99.90;;;;;;5034544;28;20412;-68
2022/08/27 12:10:57;;;;;;;3.93;3.50;;;23.60;99.90;;;;;;5034419;28;20694;-68
2022/08/27 12:13:49;;;;;;;4.60;4.20;;;23.70;99.90;;;;;;5034155;28;20508;-68
2022/08/27 12:16:36;;;;;;;6.17;5.57;;;23.80;99.90;;;;;;5034052;28;20546;-68
2022/08/27 12:19:19;;;;;;;5.00;4.60;;;23.90;99.90;;;;;;5034275;28;20875;-68
2022/08/27 12:22:09;;;;;;;4.63;4.23;;;23.80;99.90;;;;;;5034196;28;20461;-68
2022/08/27 12:24:48;;;;;;;5.30;4.23;;;24.10;99.90;;;;;;5033685;28;20486;-69
2022/08/27 12:27:30;;;;;;;4.37;3.93;;;24.10;99.90;;;;;;5035461;28;20419;-68
2022/08/27 12:30:33;;;;;;;5.47;4.77;;;23.90;99.90;;;;;;5034020;28;20923;-68
2022/08/27 12:33:18;;;;;;;5.30;4.63;;;23.80;99.90;;;;;;5028469;28;20535;-68
2022/08/27 12:35:50;;;;;;;6.23;5.00;;;23.60;99.90;;;;;;5033228;28;20446;-70
2022/08/27 12:38:17;;;;;;;4.70;4.30;;;23.50;99.90;;;;;;5034004;28;20420;-70
2022/08/27 12:40:48;;;;;;;4.10;3.80;;;23.60;99.90;;;;;;5034647;28;20416;-70
2022/08/27 12:43:26;;;;;;;6.47;4.57;;;23.60;99.90;;;;;;5034017;28;20435;-70
2022/08/27 12:46:06;;;;;;;4.27;3.67;;;23.70;99.90;;;;;;5036798;28;20437;-70
2022/08/27 12:48:47;;;;;;;5.13;4.70;;;23.70;99.90;;;;;;5034284;28;20477;-70
2022/08/27 12:51:23;;;;;;;5.53;4.77;;;23.70;99.90;;;;;;5034028;28;20413;-70
2022/08/27 12:54:07;;;;;;;3.63;3.33;;;23.90;99.90;;;;;;5033935;28;20470;-72
2022/08/27 12:57:03;;;;;;;3.93;3.63;;;24.00;99.90;;;;;;5035589;28;20414;-70
2022/08/27 12:59:43;;;;;;;5.70;3.60;;;23.90;99.90;;;;;;5053408;28;20456;-69